createdAt,value
2022-12-31T00:00:45.638Z,6.74
2022-12-31T00:03:15.319Z,6.69
2022-12-31T00:05:42.931Z,6.61
2022-12-31T00:08:10.624Z,6.53
2022-12-31T00:10:40.079Z,6.51
2022-12-31T00:13:11.102Z,6.49
2022-12-31T00:15:40.779Z,6.45
2022-12-31T00:18:09.501Z,6.40
2022-12-31T00:20:41.469Z,6.32
2022-12-31T00:23:10.934Z,6.27
2022-12-31T00:25:38.616Z,6.24
2022-12-31T00:28:06.455Z,6.16
2022-12-31T00:30:34.557Z,6.10
2022-12-31T00:33:02.305Z,6.05
2022-12-31T00:35:30.337Z,6.03
2022-12-31T00:37:57.850Z,6.00
2022-12-31T00:40:25.376Z,6.00
2022-12-31T00:42:52.875Z,6.03
2022-12-31T00:45:20.512Z,6.06
2022-12-31T00:47:47.890Z,6.12
2022-12-31T00:50:15.583Z,6.18
2022-12-31T00:52:43.233Z,6.26
2022-12-31T00:55:10.829Z,6.35
2022-12-31T00:57:38.281Z,6.43
2022-12-31T01:00:08.494Z,6.53
2022-12-31T01:02:36.361Z,6.60
2022-12-31T01:05:05.250Z,6.63
2022-12-31T01:07:41.824Z,6.62
2022-12-31T01:10:22.800Z,6.63
2022-12-31T01:12:57.525Z,6.63
2022-12-31T01:15:31.615Z,6.57
2022-12-31T01:18:11.665Z,6.58
2022-12-31T01:20:49.285Z,6.58
2022-12-31T01:23:17.759Z,6.55
2022-12-31T01:25:56.851Z,6.50
2022-12-31T01:28:27.549Z,6.46
2022-12-31T01:31:00.779Z,6.42
2022-12-31T01:33:36.745Z,6.36
2022-12-31T01:36:25.043Z,6.32
2022-12-31T01:38:54.774Z,6.29
2022-12-31T01:41:43.603Z,6.28
2022-12-31T01:44:28.779Z,6.26
2022-12-31T01:47:00.841Z,6.25
2022-12-31T01:49:48.963Z,6.22
2022-12-31T01:52:34.546Z,6.18
2022-12-31T01:55:22.850Z,6.11
2022-12-31T01:57:55.499Z,6.09
2022-12-31T02:00:22.920Z,6.04
2022-12-31T02:02:51.092Z,6.04
2022-12-31T02:05:30.476Z,6.05
2022-12-31T02:07:59.583Z,6.07
2022-12-31T02:10:27.798Z,6.09
2022-12-31T02:12:55.735Z,6.12
2022-12-31T02:15:47.117Z,6.12
2022-12-31T02:18:56.890Z,6.15
2022-12-31T02:21:58.850Z,6.16
2022-12-31T02:24:56.256Z,6.18
2022-12-31T02:27:35.694Z,6.18
2022-12-31T02:30:08.335Z,6.12
2022-12-31T02:32:44.569Z,6.09
2022-12-31T02:35:33.129Z,6.07
2022-12-31T02:38:12.107Z,6.02
2022-12-31T02:40:39.940Z,5.95
2022-12-31T02:43:09.695Z,5.88
2022-12-31T02:45:41.724Z,5.81
2022-12-31T02:48:33.066Z,5.75
2022-12-31T02:51:37.860Z,5.67
2022-12-31T02:54:33.975Z,5.59
2022-12-31T02:57:27.805Z,5.48
2022-12-31T03:00:24.343Z,5.37
2022-12-31T03:02:53.994Z,5.30
2022-12-31T03:05:25.491Z,5.25
2022-12-31T03:07:54.058Z,5.20
2022-12-31T03:10:21.564Z,5.15
2022-12-31T03:12:51.585Z,5.10
2022-12-31T03:15:37.625Z,5.08
2022-12-31T03:18:21.210Z,5.03
2022-12-31T03:21:16.666Z,5.01
2022-12-31T03:24:16.234Z,4.97
2022-12-31T03:26:48.193Z,4.93
2022-12-31T03:29:27.871Z,4.87
2022-12-31T03:32:00.188Z,4.84
2022-12-31T03:34:28.070Z,4.83
2022-12-31T03:36:55.605Z,4.83
2022-12-31T03:39:22.994Z,4.86
2022-12-31T03:41:50.556Z,4.88
2022-12-31T03:44:18.109Z,4.93
2022-12-31T03:46:45.717Z,4.96
2022-12-31T03:49:13.420Z,5.03
2022-12-31T03:51:41.245Z,5.06
2022-12-31T03:54:08.874Z,5.04
2022-12-31T03:56:36.320Z,5.01
2022-12-31T03:59:04.029Z,4.96
2022-12-31T04:01:33.335Z,4.94
2022-12-31T04:04:00.904Z,4.87
2022-12-31T04:06:28.441Z,4.84
2022-12-31T04:08:56.083Z,4.81
2022-12-31T04:11:23.738Z,4.75
2022-12-31T04:13:51.395Z,4.69
2022-12-31T04:16:19.139Z,4.65
2022-12-31T04:18:46.672Z,4.61
2022-12-31T04:21:14.325Z,4.57
2022-12-31T04:23:41.855Z,4.52
2022-12-31T04:26:09.613Z,4.50
2022-12-31T04:28:37.135Z,4.44
2022-12-31T04:31:04.919Z,4.36
2022-12-31T04:33:32.711Z,4.30
2022-12-31T04:36:02.273Z,4.19
2022-12-31T04:38:30.306Z,4.11
2022-12-31T04:41:16.553Z,4.06
2022-12-31T04:43:51.460Z,4.00
2022-12-31T04:46:23.607Z,3.89
2022-12-31T04:48:51.386Z,3.82
2022-12-31T04:51:19.233Z,3.75
2022-12-31T04:53:47.082Z,3.70
2022-12-31T04:56:15.789Z,3.67
2022-12-31T04:58:48.161Z,3.62
2022-12-31T05:01:15.896Z,3.54
2022-12-31T05:03:43.641Z,3.52
2022-12-31T05:06:22.407Z,3.51
2022-12-31T05:08:50.510Z,3.50
2022-12-31T05:11:17.918Z,3.51
2022-12-31T05:13:45.469Z,3.54
2022-12-31T05:16:13.583Z,3.57
2022-12-31T05:18:41.249Z,3.63
2022-12-31T05:21:10.310Z,3.70
2022-12-31T05:23:38.411Z,3.74
2022-12-31T05:26:06.131Z,3.73
2022-12-31T05:28:33.747Z,3.75
2022-12-31T05:31:01.460Z,3.76
2022-12-31T05:33:31.773Z,3.81
2022-12-31T05:35:59.460Z,3.79
2022-12-31T05:38:27.082Z,3.76
2022-12-31T05:41:03.151Z,3.70
2022-12-31T05:43:31.569Z,3.63
2022-12-31T05:46:04.802Z,3.59
2022-12-31T05:48:33.001Z,3.57
2022-12-31T05:51:00.658Z,3.55
2022-12-31T05:53:28.357Z,3.51
2022-12-31T05:55:55.925Z,3.48
2022-12-31T05:58:23.363Z,3.47
2022-12-31T06:00:52.357Z,3.44
2022-12-31T06:03:20.245Z,3.41
2022-12-31T06:05:48.303Z,3.38
2022-12-31T06:08:16.041Z,3.35
2022-12-31T06:10:43.851Z,3.34
2022-12-31T06:13:11.403Z,3.36
2022-12-31T06:15:39.983Z,3.37
2022-12-31T06:18:08.117Z,3.38
2022-12-31T06:20:38.959Z,3.39
2022-12-31T06:23:06.467Z,3.40
2022-12-31T06:25:39.297Z,3.39
2022-12-31T06:28:06.991Z,3.39
2022-12-31T06:30:34.545Z,3.40
2022-12-31T06:33:02.163Z,3.40
2022-12-31T06:35:29.657Z,3.42
2022-12-31T06:37:57.568Z,3.46
2022-12-31T06:40:25.085Z,3.49
2022-12-31T06:42:59.515Z,3.53
2022-12-31T06:45:22.394Z,3.59
2022-12-31T06:47:50.448Z,3.66
2022-12-31T06:50:18.274Z,3.72
2022-12-31T06:52:45.794Z,3.81
2022-12-31T06:55:14.722Z,3.89
2022-12-31T06:57:42.999Z,3.98
2022-12-31T07:00:12.650Z,4.05
2022-12-31T07:03:11.868Z,4.08
2022-12-31T07:05:45.696Z,4.10
2022-12-31T07:08:33.997Z,4.16
2022-12-31T07:11:22.859Z,4.25
2022-12-31T07:14:01.695Z,4.37
2022-12-31T07:16:54.461Z,4.43
2022-12-31T07:19:47.535Z,4.47
2022-12-31T07:22:17.320Z,4.51
2022-12-31T07:24:46.135Z,4.55
2022-12-31T07:28:03.488Z,4.54
2022-12-31T07:31:03.633Z,4.54
2022-12-31T07:33:42.690Z,4.48
2022-12-31T07:36:18.519Z,4.51
2022-12-31T07:39:00.760Z,4.55
2022-12-31T07:41:58.063Z,4.61
2022-12-31T07:44:43.220Z,4.68
2022-12-31T07:47:27.137Z,4.71
2022-12-31T07:49:56.280Z,4.78
2022-12-31T07:52:24.744Z,4.85
2022-12-31T07:54:52.496Z,4.90
2022-12-31T07:57:21.020Z,4.96
2022-12-31T07:59:56.781Z,5.07
2022-12-31T08:02:52.933Z,5.14
2022-12-31T08:05:52.598Z,5.26
2022-12-31T08:08:31.069Z,5.36
2022-12-31T08:11:33.973Z,5.51
2022-12-31T08:14:02.254Z,5.63
2022-12-31T08:16:30.777Z,5.73
2022-12-31T08:18:58.839Z,5.87
2022-12-31T08:21:50.163Z,6.00
2022-12-31T08:24:35.337Z,6.12
2022-12-31T08:27:37.532Z,6.19
2022-12-31T08:30:15.156Z,6.27
2022-12-31T08:33:12.297Z,6.33
2022-12-31T08:36:08.346Z,6.42
2022-12-31T08:38:56.378Z,6.52
2022-12-31T08:41:42.645Z,6.58
2022-12-31T08:44:31.595Z,6.60
2022-12-31T08:47:13.256Z,6.61
2022-12-31T08:49:41.843Z,6.58
2022-12-31T08:52:20.906Z,6.57
2022-12-31T08:54:49.234Z,6.56
2022-12-31T08:57:53.939Z,6.59
2022-12-31T09:00:22.801Z,6.60
2022-12-31T09:03:29.358Z,6.59
2022-12-31T09:06:23.579Z,6.59
2022-12-31T09:09:08.865Z,6.64
2022-12-31T09:11:59.400Z,6.73
2022-12-31T09:14:48.479Z,6.88
2022-12-31T09:17:33.614Z,7.04
2022-12-31T09:20:04.784Z,7.29
2022-12-31T09:22:32.614Z,7.56
2022-12-31T09:25:00.953Z,7.81
2022-12-31T09:27:34.097Z,8.00
2022-12-31T09:30:10.601Z,8.28
2022-12-31T09:32:58.664Z,8.28
2022-12-31T09:35:42.605Z,8.43
2022-12-31T09:38:33.680Z,8.58
2022-12-31T09:41:42.295Z,8.64
2022-12-31T09:44:59.223Z,8.73
2022-12-31T09:48:05.569Z,8.77
2022-12-31T09:50:45.909Z,8.81
2022-12-31T09:53:27.848Z,8.86
2022-12-31T09:56:12.336Z,8.88
2022-12-31T09:59:19.587Z,8.87
2022-12-31T10:02:36.519Z,8.85
2022-12-31T10:05:27.905Z,8.81
2022-12-31T10:08:10.294Z,8.75
2022-12-31T10:11:04.644Z,8.71
2022-12-31T10:13:49.178Z,8.72
2022-12-31T10:16:49.576Z,8.66
2022-12-31T10:19:43.419Z,8.64
2022-12-31T10:22:43.253Z,8.62
2022-12-31T10:25:50.242Z,8.61
2022-12-31T10:28:42.473Z,8.61
2022-12-31T10:31:38.244Z,8.58
2022-12-31T10:34:57.142Z,8.57
2022-12-31T10:37:32.908Z,8.56
2022-12-31T10:40:35.366Z,8.59
2022-12-31T10:43:54.354Z,8.63
2022-12-31T10:47:05.139Z,8.71
2022-12-31T10:49:57.762Z,8.83
2022-12-31T10:52:46.419Z,8.90
2022-12-31T10:55:28.459Z,9.00
2022-12-31T10:58:26.908Z,9.12
2022-12-31T11:01:15.378Z,9.21
2022-12-31T11:04:17.844Z,9.26
2022-12-31T11:07:40.011Z,9.27
2022-12-31T11:10:39.314Z,9.27
2022-12-31T11:13:54.438Z,9.30
2022-12-31T11:16:59.278Z,9.32
2022-12-31T11:20:05.401Z,9.32
2022-12-31T11:22:48.086Z,9.33
2022-12-31T11:25:45.773Z,9.31
2022-12-31T11:28:48.839Z,9.24
2022-12-31T11:31:34.323Z,9.21
2022-12-31T11:34:28.988Z,9.22
2022-12-31T11:37:31.186Z,9.21
2022-12-31T11:40:27.032Z,9.22
2022-12-31T11:43:21.064Z,9.20
2022-12-31T11:46:00.701Z,9.20
2022-12-31T11:49:07.372Z,9.20
2022-12-31T11:52:10.728Z,9.24
2022-12-31T11:55:03.437Z,9.27
2022-12-31T11:57:39.441Z,9.32
2022-12-31T12:00:20.808Z,9.41
2022-12-31T12:03:02.512Z,9.48
2022-12-31T12:05:33.687Z,9.57
2022-12-31T12:08:01.958Z,9.65
2022-12-31T12:10:49.819Z,9.72
2022-12-31T12:13:24.244Z,9.79
2022-12-31T12:15:59.548Z,9.84
2022-12-31T12:18:47.821Z,9.87
2022-12-31T12:21:22.754Z,9.88
2022-12-31T12:24:11.006Z,9.91
2022-12-31T12:26:42.572Z,9.96
2022-12-31T12:29:21.215Z,9.99
2022-12-31T12:32:05.914Z,9.96
2022-12-31T12:34:45.917Z,9.92
2022-12-31T12:37:34.902Z,9.84
2022-12-31T12:40:27.019Z,9.79
2022-12-31T12:42:53.817Z,9.78
2022-12-31T12:45:29.526Z,9.75
2022-12-31T12:48:01.380Z,9.74
2022-12-31T12:50:47.878Z,9.73
2022-12-31T12:53:39.054Z,9.71
2022-12-31T12:56:12.245Z,9.66
2022-12-31T12:59:00.161Z,9.65
2022-12-31T13:01:47.868Z,9.63
2022-12-31T13:04:35.198Z,9.64
2022-12-31T13:07:26.474Z,9.69
2022-12-31T13:10:11.405Z,9.75
2022-12-31T13:13:22.661Z,9.81
2022-12-31T13:15:40.139Z,9.86
2022-12-31T13:18:19.188Z,9.90
2022-12-31T13:21:13.555Z,9.96
2022-12-31T13:23:55.546Z,10.01
2022-12-31T13:26:31.331Z,10.05
2022-12-31T13:29:02.387Z,10.11
2022-12-31T13:31:37.462Z,10.15
2022-12-31T13:34:10.523Z,10.18
2022-12-31T13:36:41.869Z,10.22
2022-12-31T13:39:17.916Z,10.25
2022-12-31T13:41:54.085Z,10.33
2022-12-31T13:44:39.693Z,10.38
2022-12-31T13:47:42.778Z,10.38
2022-12-31T13:50:31.414Z,10.36
2022-12-31T13:53:26.263Z,10.29
2022-12-31T13:56:23.831Z,10.25
2022-12-31T13:59:05.904Z,10.21
2022-12-31T14:01:44.806Z,10.15
2022-12-31T14:04:23.592Z,10.09
2022-12-31T14:07:22.878Z,10.03
2022-12-31T14:09:50.549Z,9.96
2022-12-31T14:12:32.616Z,9.86
2022-12-31T14:15:26.179Z,9.78
2022-12-31T14:18:08.067Z,9.70
2022-12-31T14:20:56.258Z,9.64
2022-12-31T14:23:47.269Z,9.55
2022-12-31T14:26:29.652Z,9.44
2022-12-31T14:29:11.737Z,9.35
2022-12-31T14:31:56.716Z,9.30
2022-12-31T14:35:17.281Z,9.28
2022-12-31T14:38:27.645Z,9.28
2022-12-31T14:41:25.939Z,9.32
2022-12-31T14:44:34.004Z,9.34
2022-12-31T14:47:26.578Z,9.37
2022-12-31T14:50:16.693Z,9.37
2022-12-31T14:53:07.179Z,9.34
2022-12-31T14:55:37.966Z,9.30
2022-12-31T14:58:28.383Z,9.26
2022-12-31T15:01:00.647Z,9.24
2022-12-31T15:03:45.372Z,9.20
2022-12-31T15:06:27.957Z,9.18
2022-12-31T15:09:36.279Z,9.15
2022-12-31T15:12:49.395Z,9.12
2022-12-31T15:15:34.530Z,9.06
2022-12-31T15:18:28.976Z,8.99
2022-12-31T15:21:36.071Z,8.92
2022-12-31T15:24:20.097Z,8.85
2022-12-31T15:26:52.416Z,8.79
2022-12-31T15:29:33.337Z,8.71
2022-12-31T15:32:04.016Z,8.65
2022-12-31T15:34:34.832Z,8.61
2022-12-31T15:37:06.663Z,8.57
2022-12-31T15:39:41.447Z,8.52
2022-12-31T15:42:49.139Z,8.52
2022-12-31T15:45:47.855Z,8.51
2022-12-31T15:48:28.034Z,8.54
2022-12-31T15:50:59.637Z,8.55
2022-12-31T15:53:41.531Z,8.57
2022-12-31T15:56:17.289Z,8.60
2022-12-31T15:58:47.259Z,8.64
2022-12-31T16:01:22.431Z,8.70
2022-12-31T16:04:01.912Z,8.75
2022-12-31T16:06:38.017Z,8.79
2022-12-31T16:09:27.230Z,8.83
2022-12-31T16:11:57.367Z,8.88
2022-12-31T16:14:38.374Z,8.94
2022-12-31T16:17:07.013Z,8.98
2022-12-31T16:19:45.249Z,8.98
2022-12-31T16:22:20.802Z,8.99
2022-12-31T16:27:30.872Z,8.91
2022-12-31T16:30:06.826Z,8.89
2022-12-31T16:32:37.725Z,8.86
2022-12-31T16:35:28.452Z,8.84
2022-12-31T16:38:15.637Z,8.82
2022-12-31T16:41:09.831Z,8.77
2022-12-31T16:43:42.689Z,8.71
2022-12-31T16:46:27.410Z,8.66
2022-12-31T16:49:03.300Z,8.62
2022-12-31T16:51:33.968Z,8.59
2022-12-31T16:54:03.067Z,8.53
2022-12-31T16:56:37.683Z,8.49
2022-12-31T16:59:17.661Z,8.43
2022-12-31T17:01:46.491Z,8.37
2022-12-31T17:04:18.384Z,8.36
2022-12-31T17:06:47.914Z,8.37
2022-12-31T17:09:22.377Z,8.42
2022-12-31T17:12:00.271Z,8.48
2022-12-31T17:14:30.023Z,8.53
2022-12-31T17:17:07.389Z,8.61
2022-12-31T17:19:45.459Z,8.67
2022-12-31T17:22:37.348Z,8.73
2022-12-31T17:25:15.841Z,8.76
2022-12-31T17:27:54.764Z,8.83
2022-12-31T17:30:34.476Z,8.86
2022-12-31T17:33:06.717Z,8.92
2022-12-31T17:35:39.945Z,8.95
2022-12-31T17:38:27.826Z,8.99
2022-12-31T17:41:04.792Z,9.02
2022-12-31T17:43:37.823Z,8.99
2022-12-31T17:46:15.487Z,8.97
2022-12-31T17:48:45.779Z,8.92
2022-12-31T17:51:13.429Z,8.87
2022-12-31T17:53:42.119Z,8.80
2022-12-31T17:56:15.036Z,8.77
2022-12-31T17:58:49.737Z,8.71
2022-12-31T18:01:22.990Z,8.66
2022-12-31T18:03:51.447Z,8.62
2022-12-31T18:06:19.031Z,8.58
2022-12-31T18:08:46.926Z,8.56
2022-12-31T18:11:19.800Z,8.53
2022-12-31T18:13:47.900Z,8.53
2022-12-31T18:16:16.100Z,8.50
2022-12-31T18:18:44.692Z,8.51
2022-12-31T18:21:35.663Z,8.53
2022-12-31T18:24:04.818Z,8.58
2022-12-31T18:26:33.915Z,8.61
2022-12-31T18:29:13.022Z,8.66
2022-12-31T18:31:46.977Z,8.71
2022-12-31T18:34:17.355Z,8.76
2022-12-31T18:36:45.869Z,8.82
2022-12-31T18:39:13.623Z,8.85
2022-12-31T18:41:48.901Z,8.87
2022-12-31T18:44:17.659Z,8.88
2022-12-31T18:46:45.833Z,8.92
2022-12-31T18:49:13.698Z,8.92
2022-12-31T18:51:41.470Z,8.91
2022-12-31T18:54:11.390Z,8.92
2022-12-31T18:56:44.797Z,8.90
2022-12-31T18:59:08.940Z,8.87
2022-12-31T19:01:41.016Z,8.84
2022-12-31T19:04:27.204Z,8.80
2022-12-31T19:06:50.557Z,8.77
2022-12-31T19:09:43.909Z,8.72
2022-12-31T19:11:48.307Z,8.68
2022-12-31T19:14:21.291Z,8.65
2022-12-31T19:16:52.158Z,8.62
2022-12-31T19:19:20.898Z,8.58
2022-12-31T19:21:48.577Z,8.58
2022-12-31T19:24:24.033Z,8.55
2022-12-31T19:26:51.553Z,8.54
2022-12-31T19:29:24.292Z,8.50
2022-12-31T19:31:52.890Z,8.50
2022-12-31T19:34:21.041Z,8.51
2022-12-31T19:36:49.051Z,8.54
2022-12-31T19:39:19.632Z,8.58
2022-12-31T19:41:52.970Z,8.63
2022-12-31T19:44:19.237Z,8.68
2022-12-31T19:46:48.800Z,8.75
2022-12-31T19:49:16.444Z,8.83
2022-12-31T19:51:43.708Z,8.88
2022-12-31T19:54:13.191Z,8.91
2022-12-31T19:56:41.655Z,8.93
2022-12-31T19:59:10.652Z,8.95
2022-12-31T20:01:38.634Z,8.94
2022-12-31T20:04:06.913Z,8.93
2022-12-31T20:06:34.625Z,8.91
2022-12-31T20:09:03.117Z,8.88
2022-12-31T20:11:31.043Z,8.85
2022-12-31T20:13:59.037Z,8.82
2022-12-31T20:16:26.540Z,8.80
2022-12-31T20:18:54.261Z,8.75
2022-12-31T20:21:26.804Z,8.72
2022-12-31T20:23:55.027Z,8.68
2022-12-31T20:26:24.315Z,8.62
2022-12-31T20:28:53.216Z,8.59
2022-12-31T20:31:24.505Z,8.56
2022-12-31T20:33:53.724Z,8.53
2022-12-31T20:36:22.136Z,8.48
2022-12-31T20:38:50.214Z,8.46
2022-12-31T20:41:21.488Z,8.43
2022-12-31T20:43:49.167Z,8.43
2022-12-31T20:46:21.797Z,8.44
2022-12-31T20:48:52.372Z,8.49
2022-12-31T20:51:21.997Z,8.52
2022-12-31T20:53:55.856Z,8.56
2022-12-31T20:56:29.214Z,8.59
2022-12-31T20:58:57.353Z,8.62
2022-12-31T21:01:32.229Z,8.66
2022-12-31T21:04:05.546Z,8.71
2022-12-31T21:06:25.468Z,8.76
2022-12-31T21:08:58.497Z,8.76
2022-12-31T21:11:45.704Z,8.77
2022-12-31T21:14:13.438Z,8.78
2022-12-31T21:16:41.164Z,8.75
2022-12-31T21:19:09.418Z,8.74
2022-12-31T21:21:37.188Z,8.73
2022-12-31T21:24:05.760Z,8.73
2022-12-31T21:26:34.042Z,8.71
2022-12-31T21:29:03.472Z,8.68
2022-12-31T21:31:31.030Z,8.64
2022-12-31T21:33:58.659Z,8.63
2022-12-31T21:36:26.420Z,8.60
2022-12-31T21:38:54.218Z,8.57
2022-12-31T21:41:40.607Z,8.53
2022-12-31T21:44:08.484Z,8.52
2022-12-31T21:46:36.554Z,8.50
2022-12-31T21:49:04.728Z,8.47
2022-12-31T21:51:34.323Z,8.43
2022-12-31T21:54:01.981Z,8.39
2022-12-31T21:56:29.486Z,8.38
2022-12-31T21:59:18.282Z,8.39
2022-12-31T22:02:04.599Z,8.43
2022-12-31T22:07:01.287Z,8.52
2022-12-31T22:09:28.586Z,8.56
2022-12-31T22:11:56.545Z,8.61
2022-12-31T22:14:24.164Z,8.65
2022-12-31T22:16:51.533Z,8.67
2022-12-31T22:19:19.000Z,8.69
2022-12-31T22:21:47.279Z,8.70
2022-12-31T22:24:14.851Z,8.70
2022-12-31T22:26:46.488Z,8.72
2022-12-31T22:29:12.519Z,8.70
2022-12-31T22:31:40.536Z,8.71
2022-12-31T22:34:08.448Z,8.68
2022-12-31T22:36:36.063Z,8.68
2022-12-31T22:39:03.875Z,8.65
2022-12-31T22:41:34.354Z,8.62
2022-12-31T22:44:04.662Z,8.60
2022-12-31T22:46:33.844Z,8.59
2022-12-31T22:49:05.352Z,8.57
2022-12-31T22:51:57.605Z,8.53
2022-12-31T22:54:03.226Z,8.49
2022-12-31T22:56:30.924Z,8.44
2022-12-31T22:58:58.778Z,8.40
2022-12-31T23:01:26.594Z,8.36
2022-12-31T23:03:55.067Z,8.34
2022-12-31T23:06:24.034Z,8.32
2022-12-31T23:09:11.437Z,8.34
2022-12-31T23:11:40.340Z,8.37
2022-12-31T23:14:35.093Z,8.39
2022-12-31T23:17:30.369Z,8.43
2022-12-31T23:20:09.512Z,8.49
2022-12-31T23:22:55.468Z,8.53
2022-12-31T23:25:23.067Z,8.61
2022-12-31T23:27:51.642Z,8.68
2022-12-31T23:30:19.218Z,8.74
2022-12-31T23:32:46.949Z,8.79
2022-12-31T23:35:14.999Z,8.82
2022-12-31T23:37:43.028Z,8.82
2022-12-31T23:40:18.925Z,8.81
2022-12-31T23:42:42.620Z,8.83
2022-12-31T23:45:10.654Z,8.83
2022-12-31T23:47:38.444Z,8.83
2022-12-31T23:50:07.288Z,8.82
2022-12-31T23:52:34.637Z,8.77
2022-12-31T23:55:06.112Z,8.72
2022-12-31T23:57:33.659Z,8.67
